Time;durP1;ratioP1;P1;durP2;ratioP2;P2;SDS_P1;SDS_P2;PMS_P1;PMS_P2;Temp;Humidity;BMP_temperature;BMP_pressure;BME280_temperature;BME280_humidity;BME280_pressure;Samples;Min_cycle;Max_cycle;Signal;HPM_P1;HPM_P2
2022/06/20 00:02:21;;;;;;;19.88;4.60;;;;;;;;;;4920936;28;20066;-70
2022/06/20 00:04:50;;;;;;;19.75;4.93;;;;;;;;;;4931636;28;20084;-70
2022/06/20 00:07:18;;;;;;;21.90;4.75;;;;;;;;;;4936539;28;20485;-73
2022/06/20 00:09:46;;;;;;;20.60;5.03;;;;;;;;;;4937464;28;20204;-70
2022/06/20 00:12:27;;;;;;;21.33;4.75;;;;;;;;;;4938583;28;20490;-70
2022/06/20 00:14:56;;;;;;;17.02;4.70;;;;;;;;;;4937098;28;20023;-70
2022/06/20 00:17:24;;;;;;;18.67;4.95;;;;;;;;;;4937435;28;20049;-70
2022/06/20 00:19:52;;;;;;;23.30;4.93;;;;;;;;;;4935414;28;20036;-70
2022/06/20 00:22:19;;;;;;;20.27;4.40;;;;;;;;;;4935138;28;20397;-72
2022/06/20 00:24:46;;;;;;;23.88;5.13;;;;;;;;;;4938535;28;20034;-69
2022/06/20 00:27:14;;;;;;;21.83;4.78;;;;;;;;;;4921213;28;20034;-70
2022/06/20 00:29:42;;;;;;;18.38;4.82;;;;;;;;;;4920217;28;20106;-71
2022/06/20 00:32:13;;;;;;;23.65;5.20;;;;;;;;;;4931426;28;20559;-70
2022/06/20 00:34:41;;;;;;;20.80;4.85;;;;;;;;;;4936064;28;20304;-70
2022/06/20 00:37:15;;;;;;;20.33;4.60;;;;;;;;;;4918387;28;20189;-70
2022/06/20 00:39:43;;;;;;;20.02;4.72;;;;;;;;;;4929990;28;20046;-70
2022/06/20 00:42:11;;;;;;;18.25;4.68;;;;;;;;;;4913874;28;20062;-70
2022/06/20 00:44:42;;;;;;;17.48;5.30;;;;;;;;;;4915511;28;20078;-70
2022/06/20 00:47:15;;;;;;;16.92;4.13;;;;;;;;;;4908007;28;20031;-69
2022/06/20 00:49:53;;;;;;;21.25;5.18;;;;;;;;;;4919094;28;20035;-70
2022/06/20 00:52:34;;;;;;;25.73;5.25;;;;;;;;;;4921224;28;20500;-70
2022/06/20 00:55:02;;;;;;;25.52;6.00;;;;;;;;;;4905527;28;20035;-72
2022/06/20 00:57:29;;;;;;;22.63;5.70;;;;;;;;;;4918935;28;20030;-70
2022/06/20 00:59:59;;;;;;;27.83;6.60;;;;;;;;;;4905417;28;20031;-70
2022/06/20 01:02:27;;;;;;;24.80;5.65;;;;;;;;;;4919672;28;20573;-70
2022/06/20 01:04:55;;;;;;;24.38;6.40;;;;;;;;;;4918243;28;20719;-70
2022/06/20 01:07:26;;;;;;;22.77;5.88;;;;;;;;;;4916525;28;20048;-71
2022/06/20 01:09:55;;;;;;;23.80;5.65;;;;;;;;;;4917721;28;20046;-71
2022/06/20 01:12:22;;;;;;;24.30;5.45;;;;;;;;;;4918182;28;20043;-72
2022/06/20 01:14:48;;;;;;;23.60;5.60;;;;;;;;;;4887998;29;20024;-72
2022/06/20 01:17:17;;;;;;;25.35;5.43;;;;;;;;;;4897136;28;20073;-71
2022/06/20 01:20:02;;;;;;;22.40;5.85;;;;;;;;;;4920108;28;20031;-71
2022/06/20 01:22:38;;;;;;;26.33;6.63;;;;;;;;;;4910554;28;20116;-70
2022/06/20 01:25:13;;;;;;;20.13;5.97;;;;;;;;;;4916769;28;20653;-71
2022/06/20 01:27:41;;;;;;;23.85;6.10;;;;;;;;;;4910783;28;20539;-70
2022/06/20 01:30:08;;;;;;;25.08;5.80;;;;;;;;;;4916582;28;20027;-70
2022/06/20 01:32:34;;;;;;;17.42;4.60;;;;;;;;;;4917573;28;20078;-71
2022/06/20 01:35:06;;;;;;;27.52;6.28;;;;;;;;;;4915928;28;20581;-70
2022/06/20 01:37:34;;;;;;;24.13;5.88;;;;;;;;;;4919810;28;20089;-70
2022/06/20 01:40:04;;;;;;;25.95;5.47;;;;;;;;;;4922403;28;20043;-70
2022/06/20 01:42:31;;;;;;;22.15;6.05;;;;;;;;;;4929772;28;20042;-70
2022/06/20 01:45:03;;;;;;;25.02;6.22;;;;;;;;;;4937318;28;20039;-70
2022/06/20 01:47:30;;;;;;;24.05;6.05;;;;;;;;;;4935927;28;20041;-70
2022/06/20 01:50:03;;;;;;;23.98;5.68;;;;;;;;;;4935593;28;20034;-70
2022/06/20 01:52:41;;;;;;;24.48;6.65;;;;;;;;;;4937367;28;20055;-70
2022/06/20 01:55:19;;;;;;;23.95;6.22;;;;;;;;;;4934219;28;20239;-71
2022/06/20 01:57:50;;;;;;;20.83;5.95;;;;;;;;;;4939036;28;20640;-71
2022/06/20 02:00:22;;;;;;;25.85;6.25;;;;;;;;;;4938863;28;20035;-71
2022/06/20 02:02:55;;;;;;;26.20;6.47;;;;;;;;;;4934930;28;20847;-72
2022/06/20 02:05:24;;;;;;;25.30;6.78;;;;;;;;;;4941916;28;20031;-71
2022/06/20 02:07:52;;;;;;;21.77;5.72;;;;;;;;;;4937037;28;20055;-71
2022/06/20 02:10:24;;;;;;;23.00;5.90;;;;;;;;;;4924719;28;20038;-71
2022/06/20 02:12:52;;;;;;;21.35;5.95;;;;;;;;;;4935688;28;20065;-71
2022/06/20 02:15:20;;;;;;;23.88;5.93;;;;;;;;;;4939632;28;20366;-70
2022/06/20 02:17:49;;;;;;;26.27;6.15;;;;;;;;;;4919693;28;20062;-69
2022/06/20 02:20:28;;;;;;;26.63;7.32;;;;;;;;;;4940889;28;20472;-70
2022/06/20 02:22:57;;;;;;;24.67;6.35;;;;;;;;;;4938627;28;20062;-70
2022/06/20 02:25:27;;;;;;;27.52;6.90;;;;;;;;;;4939655;28;20027;-68
2022/06/20 02:27:59;;;;;;;24.10;6.40;;;;;;;;;;4936200;28;20026;-70
2022/06/20 02:30:28;;;;;;;31.17;6.82;;;;;;;;;;4942088;28;20079;-69
2022/06/20 02:32:59;;;;;;;24.63;6.80;;;;;;;;;;4937041;28;20386;-69
2022/06/20 02:35:27;;;;;;;25.48;6.70;;;;;;;;;;4940045;28;20031;-69
2022/06/20 02:37:54;;;;;;;27.30;6.95;;;;;;;;;;4934542;28;20030;-70
2022/06/20 02:40:22;;;;;;;28.55;7.05;;;;;;;;;;4935761;28;20047;-71
2022/06/20 02:42:52;;;;;;;37.58;7.68;;;;;;;;;;4919093;28;20063;-70
2022/06/20 02:45:19;;;;;;;27.33;6.43;;;;;;;;;;4920302;28;20028;-70
2022/06/20 02:47:48;;;;;;;23.33;6.97;;;;;;;;;;4918787;28;20496;-70
2022/06/20 02:50:18;;;;;;;31.30;7.18;;;;;;;;;;4919380;28;20028;-70
2022/06/20 02:52:51;;;;;;;26.42;7.10;;;;;;;;;;4918963;28;20059;-69
2022/06/20 02:55:18;;;;;;;32.47;7.63;;;;;;;;;;4902020;29;20809;-70
2022/06/20 02:57:45;;;;;;;30.65;7.18;;;;;;;;;;4919373;28;20122;-71
2022/06/20 03:00:25;;;;;;;29.08;7.10;;;;;;;;;;4903857;29;20215;-71
2022/06/20 03:02:59;;;;;;;28.70;7.15;;;;;;;;;;4916865;28;20082;-71
2022/06/20 03:05:26;;;;;;;26.52;7.30;;;;;;;;;;4921243;28;20110;-70
2022/06/20 03:07:52;;;;;;;30.00;7.97;;;;;;;;;;4912349;28;20023;-70
2022/06/20 03:10:45;;;;;;;31.75;8.30;;;;;;;;;;4920146;28;20038;-69
2022/06/20 03:13:12;;;;;;;28.27;7.28;;;;;;;;;;4885218;29;20471;-70
2022/06/20 03:15:38;;;;;;;27.20;7.38;;;;;;;;;;4917331;28;20121;-70
2022/06/20 03:18:05;;;;;;;36.53;8.77;;;;;;;;;;4917817;28;20082;-69
2022/06/20 03:20:31;;;;;;;25.65;6.63;;;;;;;;;;4918427;28;20035;-72
2022/06/20 03:23:09;;;;;;;25.50;7.55;;;;;;;;;;4918501;28;20353;-69
2022/06/20 03:25:38;;;;;;;28.77;7.18;;;;;;;;;;4919402;28;20035;-70
2022/06/20 03:28:05;;;;;;;29.40;7.47;;;;;;;;;;4912188;28;20546;-70
2022/06/20 03:30:36;;;;;;;25.30;7.30;;;;;;;;;;4917792;28;20024;-70
2022/06/20 03:33:05;;;;;;;25.67;7.07;;;;;;;;;;4921023;28;20057;-70
2022/06/20 03:35:32;;;;;;;27.98;7.15;;;;;;;;;;4916510;28;20173;-70
2022/06/20 03:38:02;;;;;;;27.25;8.07;;;;;;;;;;4909239;28;20122;-70
2022/06/20 03:40:29;;;;;;;25.30;7.22;;;;;;;;;;4932999;28;20449;-70
2022/06/20 03:42:56;;;;;;;27.00;7.03;;;;;;;;;;4919540;28;20031;-71
2022/06/20 03:45:24;;;;;;;30.58;7.40;;;;;;;;;;4932918;28;20031;-70
2022/06/20 03:48:02;;;;;;;28.10;6.55;;;;;;;;;;4922080;28;20426;-70
2022/06/20 03:50:36;;;;;;;29.13;7.10;;;;;;;;;;4926743;28;20058;-71
2022/06/20 03:53:09;;;;;;;29.05;7.10;;;;;;;;;;4928806;28;20488;-70
2022/06/20 03:55:51;;;;;;;27.70;7.05;;;;;;;;;;4936343;28;20634;-70
2022/06/20 03:58:22;;;;;;;30.08;7.75;;;;;;;;;;4939211;28;20591;-70
2022/06/20 04:01:00;;;;;;;26.83;7.20;;;;;;;;;;4934344;28;20138;-70
2022/06/20 04:03:40;;;;;;;26.27;7.53;;;;;;;;;;4932423;28;20118;-70
2022/06/20 04:06:15;;;;;;;29.17;7.82;;;;;;;;;;4929561;28;20959;-70
2022/06/20 04:11:37;;;;;;;28.10;7.00;;;;;;;;;;4936442;28;20833;-70
2022/06/20 04:14:26;;;;;;;29.10;7.13;;;;;;;;;;4932609;28;20027;-70
2022/06/20 04:18:27;;;;;;;32.92;7.78;;;;;;;;;;4931086;28;20046;-70
2022/06/20 04:19:51;;;;;;;30.58;8.00;;;;;;;;;;4925536;28;20042;-70
2022/06/20 04:22:22;;;;;;;29.20;7.93;;;;;;;;;;4918996;28;20146;-71
2022/06/20 04:25:07;;;;;;;34.95;7.60;;;;;;;;;;4900484;28;20046;-71
2022/06/20 04:27:42;;;;;;;25.40;6.90;;;;;;;;;;4937966;28;22391;-71
2022/06/20 04:30:17;;;;;;;28.38;7.68;;;;;;;;;;4934046;28;20081;-72
2022/06/20 04:32:54;;;;;;;29.13;7.40;;;;;;;;;;4934838;28;20066;-71
2022/06/20 04:35:30;;;;;;;29.27;7.78;;;;;;;;;;4939174;28;20563;-71
2022/06/20 04:38:12;;;;;;;26.30;7.18;;;;;;;;;;4929430;28;20900;-73
2022/06/20 04:40:44;;;;;;;24.65;6.65;;;;;;;;;;4930142;28;20486;-70
2022/06/20 04:43:18;;;;;;;25.17;6.88;;;;;;;;;;4933743;28;20031;-72
2022/06/20 04:45:53;;;;;;;26.90;7.22;;;;;;;;;;4935595;28;20066;-70
2022/06/20 04:48:22;;;;;;;25.98;6.88;;;;;;;;;;4934838;28;20433;-70
2022/06/20 04:50:51;;;;;;;27.80;7.32;;;;;;;;;;4929225;28;20045;-70
2022/06/20 04:53:29;;;;;;;26.80;7.10;;;;;;;;;;4939021;28;20022;-71
2022/06/20 04:55:57;;;;;;;23.15;6.32;;;;;;;;;;4921283;28;20031;-71
2022/06/20 04:58:34;;;;;;;22.27;6.70;;;;;;;;;;4926990;28;20537;-72
2022/06/20 05:01:01;;;;;;;22.90;6.30;;;;;;;;;;4926201;28;20035;-72
2022/06/20 05:03:29;;;;;;;24.30;6.10;;;;;;;;;;4935955;28;20118;-71
2022/06/20 05:05:57;;;;;;;22.95;6.15;;;;;;;;;;4926123;28;20089;-71
2022/06/20 05:08:27;;;;;;;22.85;5.90;;;;;;;;;;4935272;28;20182;-71
2022/06/20 05:11:00;;;;;;;23.95;6.38;;;;;;;;;;4935427;28;20031;-71
2022/06/20 05:13:39;;;;;;;24.30;6.47;;;;;;;;;;4920885;28;20032;-71
2022/06/20 05:16:06;;;;;;;27.13;6.78;;;;;;;;;;4934713;28;20114;-71
2022/06/20 05:18:35;;;;;;;31.15;7.97;;;;;;;;;;4927828;28;20670;-71
2022/06/20 05:21:07;;;;;;;26.52;7.32;;;;;;;;;;4921929;28;20035;-71
2022/06/20 05:23:39;;;;;;;29.73;7.35;;;;;;;;;;4927995;28;20044;-72
2022/06/20 05:26:06;;;;;;;23.10;5.70;;;;;;;;;;4916924;28;20063;-71
2022/06/20 05:28:34;;;;;;;33.53;7.82;;;;;;;;;;4930601;28;20158;-71
2022/06/20 05:31:02;;;;;;;27.05;7.30;;;;;;;;;;4926099;28;20268;-71
2022/06/20 05:33:31;;;;;;;29.00;7.43;;;;;;;;;;4910994;28;20032;-71
2022/06/20 05:36:00;;;;;;;22.15;7.15;;;;;;;;;;4919908;28;20088;-71
2022/06/20 05:38:49;;;;;;;26.27;7.57;;;;;;;;;;4933978;28;20057;-71
2022/06/20 05:41:17;;;;;;;29.05;7.40;;;;;;;;;;4892379;29;20914;-71
2022/06/20 05:43:44;;;;;;;24.40;6.47;;;;;;;;;;4912596;28;20032;-70
2022/06/20 05:46:12;;;;;;;32.22;6.90;;;;;;;;;;4912991;28;20089;-71
2022/06/20 05:48:46;;;;;;;24.90;6.78;;;;;;;;;;4914077;28;20035;-71
2022/06/20 05:51:17;;;;;;;26.50;7.32;;;;;;;;;;4912859;28;20039;-71
2022/06/20 05:53:44;;;;;;;26.33;7.05;;;;;;;;;;4889376;28;20152;-70
2022/06/20 05:56:21;;;;;;;32.42;6.78;;;;;;;;;;4903500;28;20056;-72
2022/06/20 05:58:50;;;;;;;21.67;5.88;;;;;;;;;;4914968;28;20051;-71
2022/06/20 06:01:22;;;;;;;24.52;6.70;;;;;;;;;;4921941;28;20030;-71
2022/06/20 06:04:07;;;;;;;29.77;7.85;;;;;;;;;;4917292;28;20500;-71
2022/06/20 06:06:51;;;;;;;27.30;8.32;;;;;;;;;;4914664;28;20177;-71
2022/06/20 06:09:31;;;;;;;26.10;7.75;;;;;;;;;;4911097;28;20262;-71
2022/06/20 06:12:14;;;;;;;26.63;6.68;;;;;;;;;;4911333;28;20465;-70
2022/06/20 06:14:53;;;;;;;23.15;6.30;;;;;;;;;;4913836;28;20028;-70
2022/06/20 06:17:22;;;;;;;26.58;6.50;;;;;;;;;;4912499;28;20619;-72
2022/06/20 06:19:59;;;;;;;26.13;6.00;;;;;;;;;;4906194;28;20035;-72
2022/06/20 06:22:36;;;;;;;31.10;6.90;;;;;;;;;;4919932;28;20035;-72
2022/06/20 06:25:20;;;;;;;27.60;6.78;;;;;;;;;;4921700;28;20423;-72
2022/06/20 06:27:52;;;;;;;23.15;6.80;;;;;;;;;;4922009;28;20123;-72
2022/06/20 06:30:24;;;;;;;30.83;6.95;;;;;;;;;;4920581;28;20478;-72
2022/06/20 06:32:55;;;;;;;32.42;6.78;;;;;;;;;;4922556;28;20484;-73
2022/06/20 06:35:36;;;;;;;26.58;6.90;;;;;;;;;;4921639;28;20496;-71
2022/06/20 06:38:06;;;;;;;31.23;6.72;;;;;;;;;;4912056;28;20032;-71
2022/06/20 06:40:51;;;;;;;30.65;7.30;;;;;;;;;;4926619;28;20054;-71
2022/06/20 06:43:41;;;;;;;24.45;5.97;;;;;;;;;;4920777;28;20428;-70
2022/06/20 06:46:15;;;;;;;29.88;7.45;;;;;;;;;;4906058;28;20090;-71
2022/06/20 06:48:49;;;;;;;25.90;7.80;;;;;;;;;;4916871;28;20057;-70
2022/06/20 06:51:29;;;;;;;23.20;6.82;;;;;;;;;;4922630;28;20039;-71
2022/06/20 06:54:10;;;;;;;24.77;7.38;;;;;;;;;;4919236;28;20023;-72
2022/06/20 06:56:52;;;;;;;26.83;7.72;;;;;;;;;;4922787;28;20031;-71
2022/06/20 06:59:19;;;;;;;27.02;7.22;;;;;;;;;;4921653;28;20031;-71
2022/06/20 07:01:51;;;;;;;26.48;8.18;;;;;;;;;;4919256;28;20066;-71
2022/06/20 07:04:22;;;;;;;26.92;7.05;;;;;;;;;;4934433;28;20035;-71
2022/06/20 07:06:51;;;;;;;31.15;7.38;;;;;;;;;;4919919;28;20447;-71
2022/06/20 07:09:24;;;;;;;26.73;5.78;;;;;;;;;;4920256;28;20106;-70
2022/06/20 07:12:03;;;;;;;23.00;6.30;;;;;;;;;;4918286;28;20105;-71
2022/06/20 07:14:31;;;;;;;27.67;6.72;;;;;;;;;;4922375;28;20304;-71
2022/06/20 07:16:58;;;;;;;25.17;6.10;;;;;;;;;;4916969;28;20558;-72
2022/06/20 07:19:26;;;;;;;23.52;6.15;;;;;;;;;;4920614;28;20107;-71
2022/06/20 07:21:52;;;;;;;24.27;6.80;;;;;;;;;;4902061;28;20391;-71
2022/06/20 07:24:22;;;;;;;29.98;6.40;;;;;;;;;;4923709;28;20567;-71
2022/06/20 07:27:01;;;;;;;24.63;5.88;;;;;;;;;;4917013;28;20039;-72
2022/06/20 07:29:33;;;;;;;27.92;6.70;;;;;;;;;;4918737;28;20438;-72
2022/06/20 07:32:01;;;;;;;26.02;5.88;;;;;;;;;;4918712;28;20095;-70
2022/06/20 07:34:33;;;;;;;20.50;5.45;;;;;;;;;;4915313;28;20020;-70
2022/06/20 07:37:01;;;;;;;25.48;5.75;;;;;;;;;;4918087;28;20659;-73
2022/06/20 07:39:31;;;;;;;26.38;5.82;;;;;;;;;;4920766;28;20620;-71
2022/06/20 07:42:05;;;;;;;25.13;5.05;;;;;;;;;;4902722;28;20039;-71
2022/06/20 07:44:59;;;;;;;22.70;5.63;;;;;;;;;;4922532;28;20055;-70
2022/06/20 07:47:31;;;;;;;23.45;5.70;;;;;;;;;;4930353;28;20594;-69
2022/06/20 07:50:00;;;;;;;21.15;5.13;;;;;;;;;;4927556;28;20062;-71
2022/06/20 07:52:29;;;;;;;26.80;5.80;;;;;;;;;;4909413;29;20089;-70
2022/06/20 07:55:02;;;;;;;27.10;5.43;;;;;;;;;;4926457;28;20055;-71
2022/06/20 07:57:34;;;;;;;23.92;5.70;;;;;;;;;;4931551;28;20035;-70
2022/06/20 08:00:31;;;;;;;34.33;6.53;;;;;;;;;;4920598;28;20523;-71
2022/06/20 08:03:17;;;;;;;25.47;5.30;;;;;;;;;;4898395;28;20082;-72
2022/06/20 08:05:51;;;;;;;26.30;5.85;;;;;;;;;;4931629;28;20293;-71
2022/06/20 08:08:43;;;;;;;26.20;5.85;;;;;;;;;;4913551;29;20035;-72
2022/06/20 08:14:08;;;;;;;21.90;5.15;;;;;;;;;;4926504;28;20038;-72
2022/06/20 08:16:36;;;;;;;18.27;4.80;;;;;;;;;;4926771;28;20440;-71
2022/06/20 08:19:03;;;;;;;22.50;4.88;;;;;;;;;;4926677;28;20027;-71
2022/06/20 08:21:38;;;;;;;21.02;5.20;;;;;;;;;;4925108;28;20039;-71
2022/06/20 08:24:15;;;;;;;23.55;5.22;;;;;;;;;;4928236;28;20066;-72
2022/06/20 08:26:45;;;;;;;31.55;5.82;;;;;;;;;;4925903;28;20094;-71
2022/06/20 08:29:19;;;;;;;19.60;4.90;;;;;;;;;;4928880;28;20027;-71
2022/06/20 08:31:51;;;;;;;23.17;5.55;;;;;;;;;;4927319;28;20437;-72
2022/06/20 08:34:28;;;;;;;21.45;5.55;;;;;;;;;;4928833;28;20039;-71
2022/06/20 08:37:10;;;;;;;25.80;5.85;;;;;;;;;;4925672;28;20023;-70
2022/06/20 08:39:58;;;;;;;23.75;5.43;;;;;;;;;;4930549;28;20117;-71
2022/06/20 08:42:44;;;;;;;20.27;5.03;;;;;;;;;;4938331;28;20089;-72
2022/06/20 08:45:30;;;;;;;22.35;4.68;;;;;;;;;;4942399;28;20042;-72
2022/06/20 08:48:18;;;;;;;21.95;4.88;;;;;;;;;;4922537;28;20134;-72
2022/06/20 08:51:03;;;;;;;24.00;4.97;;;;;;;;;;4944499;28;20130;-69
2022/06/20 08:53:48;;;;;;;29.80;5.20;;;;;;;;;;4946721;28;20042;-68
2022/06/20 08:56:20;;;;;;;20.85;4.60;;;;;;;;;;4942217;28;20058;-73
2022/06/20 08:58:49;;;;;;;26.00;5.00;;;;;;;;;;4942811;28;20114;-67
2022/06/20 09:01:34;;;;;;;21.17;4.68;;;;;;;;;;4943284;28;20439;-68
2022/06/20 09:04:12;;;;;;;28.05;5.03;;;;;;;;;;4943432;28;20041;-67
2022/06/20 09:06:47;;;;;;;21.48;4.72;;;;;;;;;;4948126;28;20042;-67
2022/06/20 09:09:19;;;;;;;24.65;5.22;;;;;;;;;;4929933;28;20065;-70
2022/06/20 09:12:04;;;;;;;24.10;5.05;;;;;;;;;;4943545;28;20572;-68
2022/06/20 09:14:31;;;;;;;21.45;4.85;;;;;;;;;;4952815;28;20942;-74
2022/06/20 09:16:57;;;;;;;18.83;4.63;;;;;;;;;;4947920;28;20117;-74
2022/06/20 09:19:26;;;;;;;23.20;5.13;;;;;;;;;;4952733;28;20038;-74
2022/06/20 09:22:06;;;;;;;25.17;5.75;;;;;;;;;;4946594;28;20046;-72
2022/06/20 09:24:32;;;;;;;25.40;5.20;;;;;;;;;;4935726;28;20044;-73
2022/06/20 09:26:59;;;;;;;22.52;5.65;;;;;;;;;;4945291;28;20023;-74
2022/06/20 09:29:44;;;;;;;24.85;5.55;;;;;;;;;;4952989;28;20536;-73
2022/06/20 09:32:10;;;;;;;22.52;5.57;;;;;;;;;;4947091;28;20073;-73
2022/06/20 09:34:40;;;;;;;24.73;4.70;;;;;;;;;;4947496;28;20027;-73
2022/06/20 09:37:29;;;;;;;23.42;5.10;;;;;;;;;;4947648;28;20034;-73
2022/06/20 09:40:14;;;;;;;20.73;4.70;;;;;;;;;;4883742;29;20458;-74
2022/06/20 09:42:43;;;;;;;21.02;4.55;;;;;;;;;;4872463;29;20032;-74
2022/06/20 09:45:15;;;;;;;23.60;5.10;;;;;;;;;;4870778;29;20528;-74
2022/06/20 09:48:01;;;;;;;21.63;4.88;;;;;;;;;;4872146;29;20056;-74
2022/06/20 09:50:27;;;;;;;;;;;;;;;;;;4868362;29;20040;-74
2022/06/20 09:53:06;;;;;;;21.98;5.05;;;;;;;;;;4870435;29;20385;-74
2022/06/20 09:55:50;;;;;;;19.67;5.15;;;;;;;;;;4875316;29;20591;-75
2022/06/20 09:58:41;;;;;;;19.23;4.95;;;;;;;;;;4873572;29;20264;-72
2022/06/20 10:01:44;;;;;;;24.90;5.28;;;;;;;;;;4869508;29;20076;-75
2022/06/20 10:04:29;;;;;;;28.55;5.22;;;;;;;;;;4816849;29;20057;-75
2022/06/20 10:07:08;;;;;;;26.48;5.68;;;;;;;;;;4831336;29;20496;-73
2022/06/20 10:09:52;;;;;;;26.65;5.10;;;;;;;;;;4835915;29;20446;-73
2022/06/20 10:12:23;;;;;;;22.98;5.25;;;;;;;;;;4821794;29;20137;-74
2022/06/20 10:15:10;;;;;;;24.15;5.18;;;;;;;;;;4833097;29;20144;-74
2022/06/20 10:17:51;;;;;;;22.95;5.15;;;;;;;;;;4848472;29;20136;-74
2022/06/20 10:20:35;;;;;;;22.45;5.10;;;;;;;;;;4866724;29;20510;-74
2022/06/20 10:23:16;;;;;;;22.73;5.10;;;;;;;;;;4848670;29;20381;-74
2022/06/20 10:26:04;;;;;;;27.35;5.53;;;;;;;;;;4862014;29;20052;-73
2022/06/20 10:28:49;;;;;;;24.63;5.40;;;;;;;;;;4864302;29;20034;-75
2022/06/20 10:31:35;;;;;;;24.90;5.32;;;;;;;;;;4873428;29;20060;-74
2022/06/20 10:34:22;;;;;;;27.02;5.60;;;;;;;;;;4864140;29;20028;-73
2022/06/20 10:37:02;;;;;;;19.60;5.03;;;;;;;;;;4856671;29;20434;-74
2022/06/20 10:39:48;;;;;;;19.48;4.60;;;;;;;;;;4933011;28;20138;-73
2022/06/20 10:42:34;;;;;;;28.48;5.15;;;;;;;;;;4947881;28;20031;-74
2022/06/20 10:45:19;;;;;;;23.27;5.60;;;;;;;;;;4945270;28;20027;-73
2022/06/20 10:48:04;;;;;;;25.52;5.35;;;;;;;;;;4942124;28;20884;-73
2022/06/20 10:50:36;;;;;;;21.65;4.88;;;;;;;;;;4944223;28;20071;-72
2022/06/20 10:53:21;;;;;;;28.13;5.55;;;;;;;;;;4937515;28;20039;-74
2022/06/20 10:56:05;;;;;;;23.27;4.95;;;;;;;;;;4940215;28;20045;-74
2022/06/20 10:58:46;;;;;;;26.50;5.72;;;;;;;;;;4948025;28;20042;-74
2022/06/20 11:01:38;;;;;;;24.70;5.75;;;;;;;;;;4948997;28;20487;-73
2022/06/20 11:04:10;;;;;;;27.63;5.78;;;;;;;;;;4933775;28;20126;-73
2022/06/20 11:06:46;;;;;;;22.70;4.78;;;;;;;;;;4940660;28;20480;-79
2022/06/20 11:09:15;;;;;;;23.55;5.47;;;;;;;;;;4948289;28;20133;-74
2022/06/20 11:11:48;;;;;;;24.85;4.88;;;;;;;;;;4944770;28;20031;-74
2022/06/20 11:14:20;;;;;;;26.45;5.35;;;;;;;;;;4936803;28;20114;-74
2022/06/20 11:17:05;;;;;;;23.60;5.50;;;;;;;;;;4934773;28;20047;-78
2022/06/20 11:19:38;;;;;;;21.30;4.55;;;;;;;;;;4932381;28;20486;-73
2022/06/20 11:22:11;;;;;;;24.65;5.53;;;;;;;;;;4935226;28;20441;-74
2022/06/20 11:25:00;;;;;;;22.92;5.07;;;;;;;;;;4939769;28;20034;-73
2022/06/20 11:27:37;;;;;;;27.20;5.45;;;;;;;;;;4939328;28;20042;-73
2022/06/20 11:30:13;;;;;;;30.05;6.00;;;;;;;;;;4935398;28;20061;-73
2022/06/20 11:32:56;;;;;;;26.77;5.15;;;;;;;;;;4931936;28;20093;-73
2022/06/20 11:35:36;;;;;;;19.95;4.78;;;;;;;;;;4935560;28;20023;-74
2022/06/20 11:38:02;;;;;;;22.15;5.30;;;;;;;;;;4932380;28;20106;-73
2022/06/20 11:40:28;;;;;;;25.30;4.78;;;;;;;;;;4932054;28;20108;-77
2022/06/20 11:43:09;;;;;;;26.10;5.63;;;;;;;;;;4932430;28;20438;-73
2022/06/20 11:45:38;;;;;;;25.65;5.03;;;;;;;;;;4936975;28;20039;-73
2022/06/20 11:48:24;;;;;;;23.98;5.50;;;;;;;;;;4935008;28;20062;-73
2022/06/20 11:51:05;;;;;;;27.65;5.18;;;;;;;;;;4934005;28;20034;-73
2022/06/20 11:53:34;;;;;;;21.15;4.85;;;;;;;;;;4929270;28;20539;-72
2022/06/20 11:56:16;;;;;;;25.17;4.70;;;;;;;;;;4921196;28;20642;-73
2022/06/20 11:59:02;;;;;;;24.75;5.53;;;;;;;;;;4933627;28;20031;-74
2022/06/20 12:01:33;;;;;;;25.35;5.22;;;;;;;;;;4931081;28;20069;-73
2022/06/20 12:04:28;;;;;;;18.90;4.90;;;;;;;;;;4932681;28;20437;-73
2022/06/20 12:07:28;;;;;;;21.80;5.25;;;;;;;;;;4923443;28;20049;-73
2022/06/20 12:10:02;;;;;;;27.27;4.93;;;;;;;;;;4877592;29;20059;-73
2022/06/20 12:12:31;;;;;;;21.50;4.95;;;;;;;;;;4887194;29;20501;-72
2022/06/20 12:15:21;;;;;;;23.20;4.85;;;;;;;;;;4877665;29;20047;-73
2022/06/20 12:18:07;;;;;;;20.50;5.05;;;;;;;;;;4882669;29;20147;-75
2022/06/20 12:23:40;;;;;;;22.80;4.32;;;;;;;;;;4890370;29;20103;-74
2022/06/20 12:26:32;;;;;;;24.95;4.47;;;;;;;;;;4892019;29;21860;-72
2022/06/20 12:29:00;;;;;;;25.70;4.85;;;;;;;;;;4887261;29;20040;-73
2022/06/20 12:31:37;;;;;;;25.05;5.00;;;;;;;;;;4894401;29;20035;-73
2022/06/20 12:34:17;;;;;;;23.35;4.53;;;;;;;;;;4881053;29;20038;-72
2022/06/20 12:37:03;;;;;;;24.90;4.47;;;;;;;;;;4891588;29;20491;-72
2022/06/20 12:39:53;;;;;;;20.55;4.55;;;;;;;;;;4888111;29;20059;-72
2022/06/20 12:42:35;;;;;;;20.27;4.60;;;;;;;;;;4883309;29;20034;-73
2022/06/20 12:45:21;;;;;;;27.48;5.70;;;;;;;;;;4876290;28;20035;-75
2022/06/20 12:48:08;;;;;;;23.92;4.60;;;;;;;;;;4938314;28;20521;-73
2022/06/20 12:50:49;;;;;;;20.63;4.72;;;;;;;;;;4941708;28;20035;-73
2022/06/20 12:53:36;;;;;;;17.85;4.45;;;;;;;;;;4940640;28;20429;-73
2022/06/20 12:56:18;;;;;;;23.80;5.05;;;;;;;;;;4941750;28;20857;-73
2022/06/20 12:58:55;;;;;;;25.02;4.78;;;;;;;;;;4942691;28;20532;-74
2022/06/20 13:01:25;;;;;;;26.80;4.80;;;;;;;;;;4924396;28;20118;-71
2022/06/20 13:03:58;;;;;;;23.95;4.40;;;;;;;;;;4945328;28;20066;-74
2022/06/20 13:06:58;;;;;;;23.38;4.60;;;;;;;;;;4943258;28;20053;-71
2022/06/20 13:09:58;;;;;;;20.92;5.10;;;;;;;;;;4879746;29;20043;-70
2022/06/20 13:12:27;;;;;;;23.67;4.72;;;;;;;;;;4873252;29;20032;-72
2022/06/20 13:15:11;;;;;;;22.48;4.60;;;;;;;;;;4872010;29;20585;-72
2022/06/20 13:18:01;;;;;;;22.77;4.90;;;;;;;;;;4877278;29;20040;-71
2022/06/20 13:20:36;;;;;;;21.15;4.80;;;;;;;;;;4865536;29;20290;-70
2022/06/20 13:23:05;;;;;;;21.55;5.00;;;;;;;;;;4850531;29;20063;-73
2022/06/20 13:25:34;;;;;;;22.45;5.20;;;;;;;;;;4858719;29;20113;-71
2022/06/20 13:28:09;;;;;;;24.02;4.43;;;;;;;;;;4871489;29;20052;-72
2022/06/20 13:30:57;;;;;;;26.25;4.53;;;;;;;;;;4870487;29;20092;-70
2022/06/20 13:33:41;;;;;;;21.80;5.03;;;;;;;;;;4869615;29;20040;-71
2022/06/20 13:36:26;;;;;;;22.05;4.72;;;;;;;;;;4850448;29;20564;-72
2022/06/20 13:38:58;;;;;;;19.55;4.63;;;;;;;;;;4869862;29;20044;-72
2022/06/20 13:41:45;;;;;;;19.40;4.97;;;;;;;;;;4871154;29;20057;-73
2022/06/20 13:44:30;;;;;;;28.30;4.82;;;;;;;;;;4853341;29;20035;-71
2022/06/20 13:47:01;;;;;;;24.10;4.82;;;;;;;;;;4870793;29;20131;-70
2022/06/20 13:49:36;;;;;;;17.20;4.65;;;;;;;;;;4930850;28;20428;-71
2022/06/20 13:52:08;;;;;;;31.00;4.78;;;;;;;;;;4932192;28;20108;-72
2022/06/20 13:54:57;;;;;;;21.58;4.93;;;;;;;;;;4927642;28;20031;-72
2022/06/20 13:57:30;;;;;;;22.85;5.05;;;;;;;;;;4933101;28;20042;-72
2022/06/20 14:00:18;;;;;;;20.67;4.38;;;;;;;;;;4935586;28;20046;-70
2022/06/20 14:03:07;;;;;;;22.95;4.30;;;;;;;;;;4940981;28;20050;-71
2022/06/20 14:05:35;;;;;;;22.05;4.32;;;;;;;;;;4937974;28;20042;-70
2022/06/20 14:08:23;;;;;;;24.17;4.78;;;;;;;;;;4934946;28;20039;-71
2022/06/20 14:11:02;;;;;;;20.10;4.20;;;;;;;;;;4915201;28;20581;-71
2022/06/20 14:13:32;;;;;;;24.55;4.38;;;;;;;;;;4937216;28;20039;-71
2022/06/20 14:16:26;;;;;;;22.83;4.78;;;;;;;;;;4938473;28;20077;-71
2022/06/20 14:18:55;;;;;;;20.50;4.78;;;;;;;;;;4931115;28;20051;-73
2022/06/20 14:21:23;;;;;;;22.23;4.63;;;;;;;;;;4944505;28;20023;-71
2022/06/20 14:23:55;;;;;;;18.98;4.60;;;;;;;;;;4937402;28;20438;-72
2022/06/20 14:26:32;;;;;;;22.80;4.70;;;;;;;;;;4937399;28;20078;-71
2022/06/20 14:29:03;;;;;;;23.23;4.47;;;;;;;;;;4929226;28;20319;-70
2022/06/20 14:31:39;;;;;;;18.50;4.25;;;;;;;;;;4938190;28;20035;-71
2022/06/20 14:34:25;;;;;;;27.10;4.22;;;;;;;;;;4916297;28;21963;-71
2022/06/20 14:37:14;;;;;;;23.65;4.47;;;;;;;;;;4924594;28;20817;-75
2022/06/20 14:40:07;;;;;;;24.83;5.10;;;;;;;;;;4913385;28;20035;-75
2022/06/20 14:43:05;;;;;;;20.35;4.38;;;;;;;;;;4920993;28;20043;-76
2022/06/20 14:45:41;;;;;;;27.70;5.07;;;;;;;;;;4853748;29;20242;-76
2022/06/20 14:48:19;;;;;;;21.25;4.82;;;;;;;;;;4856932;29;20504;-76
2022/06/20 14:50:58;;;;;;;20.45;4.88;;;;;;;;;;4872612;29;20044;-76
2022/06/20 14:53:54;;;;;;;19.40;4.63;;;;;;;;;;4863713;29;20025;-76
2022/06/20 14:56:20;;;;;;;;;;;;;;;;;;4822670;29;20652;-77
2022/06/20 14:58:54;;;;;;;19.20;4.47;;;;;;;;;;4833734;29;20076;-77
2022/06/20 15:01:38;;;;;;;19.92;4.82;;;;;;;;;;4825585;29;20085;-76
2022/06/20 15:04:10;;;;;;;23.50;4.68;;;;;;;;;;4826004;29;20037;-77
2022/06/20 15:06:44;;;;;;;21.27;4.95;;;;;;;;;;4845644;29;20122;-76
2022/06/20 15:09:20;;;;;;;22.40;4.78;;;;;;;;;;4819547;29;20057;-78
2022/06/20 15:12:04;;;;;;;24.02;4.72;;;;;;;;;;4827375;29;20556;-77
2022/06/20 15:14:35;;;;;;;27.85;5.55;;;;;;;;;;4821161;29;20303;-76
2022/06/20 15:17:10;;;;;;;17.92;3.75;;;;;;;;;;4834324;29;20036;-76
2022/06/20 15:19:45;;;;;;;23.17;4.60;;;;;;;;;;4833790;29;20059;-76
2022/06/20 15:22:27;;;;;;;22.23;4.45;;;;;;;;;;4818136;29;20101;-76
2022/06/20 15:25:12;;;;;;;21.05;4.65;;;;;;;;;;4812277;29;20048;-77
2022/06/20 15:27:42;;;;;;;23.35;4.50;;;;;;;;;;4826725;29;20066;-76
2022/06/20 15:30:19;;;;;;;22.42;5.00;;;;;;;;;;4834978;29;20034;-76